Willenhall, United Kingdom
Current Conditions -  °F | °C
As of 4:20 PM on Thursday 30 Oct 2014 (Local Time) from EGBB Reporting Station
Drizzle Drizzle  
Wind Chill: 63°   Ceiling: 1800
Heat Index: 63°   Visibility: 4mi
Dew Point: 57°   Wind: 6mph
Humidity: 82%   Direction: 170°S
Pressure: 30"   Gusts: NA
Location:  52.6°N, 2.03°W
Report Text: EGBB 301620Z 17005KT 7000 -DZ BKN018 BKN045 17/14 Q1016
Loading
Personal Weather Stations






























Interactive Weather Map
Tropical Storm Tracking
New forecast layout! Learn more

10-Day Weather Forecast

Advertisements
Track Severe Weather on mobile